sensor_id;sensor_type;location;lat;lon;timestamp;P1;durP1;ratioP1;P2;durP2;ratioP2
6356;SDS011;3211;53.452;-2.264;2023-03-07T00:02:13;17.60;;;3.10;;
6356;SDS011;3211;53.452;-2.264;2023-03-07T00:04:44;15.53;;;2.73;;
6356;SDS011;3211;53.452;-2.264;2023-03-07T00:07:11;10.70;;;3.13;;
6356;SDS011;3211;53.452;-2.264;2023-03-07T00:09:39;4.63;;;2.33;;
6356;SDS011;3211;53.452;-2.264;2023-03-07T00:12:06;6.07;;;2.83;;
6356;SDS011;3211;53.452;-2.264;2023-03-07T00:14:33;8.33;;;2.83;;
6356;SDS011;3211;53.452;-2.264;2023-03-07T00:17:00;6.93;;;2.87;;
6356;SDS011;3211;53.452;-2.264;2023-03-07T00:19:27;19.47;;;3.07;;
6356;SDS011;3211;53.452;-2.264;2023-03-07T00:21:56;7.43;;;2.70;;
6356;SDS011;3211;53.452;-2.264;2023-03-07T00:24:23;6.63;;;2.10;;
6356;SDS011;3211;53.452;-2.264;2023-03-07T00:26:49;4.77;;;2.03;;
6356;SDS011;3211;53.452;-2.264;2023-03-07T00:29:16;7.20;;;3.00;;
6356;SDS011;3211;53.452;-2.264;2023-03-07T00:31:43;10.73;;;2.30;;
6356;SDS011;3211;53.452;-2.264;2023-03-07T00:34:10;5.40;;;2.07;;
6356;SDS011;3211;53.452;-2.264;2023-03-07T00:36:37;6.77;;;2.60;;
6356;SDS011;3211;53.452;-2.264;2023-03-07T00:39:05;4.50;;;2.30;;
6356;SDS011;3211;53.452;-2.264;2023-03-07T00:41:32;6.20;;;2.20;;
6356;SDS011;3211;53.452;-2.264;2023-03-07T00:43:59;5.33;;;2.40;;
6356;SDS011;3211;53.452;-2.264;2023-03-07T00:46:26;5.70;;;2.37;;
6356;SDS011;3211;53.452;-2.264;2023-03-07T00:48:53;7.17;;;2.13;;
6356;SDS011;3211;53.452;-2.264;2023-03-07T00:51:21;7.23;;;2.10;;
6356;SDS011;3211;53.452;-2.264;2023-03-07T00:53:49;6.37;;;1.90;;
6356;SDS011;3211;53.452;-2.264;2023-03-07T00:56:18;4.37;;;2.00;;
6356;SDS011;3211;53.452;-2.264;2023-03-07T00:58:46;8.03;;;2.00;;
6356;SDS011;3211;53.452;-2.264;2023-03-07T01:01:14;9.93;;;2.50;;
6356;SDS011;3211;53.452;-2.264;2023-03-07T01:03:43;3.60;;;2.20;;
6356;SDS011;3211;53.452;-2.264;2023-03-07T01:06:14;4.77;;;2.43;;
6356;SDS011;3211;53.452;-2.264;2023-03-07T01:08:42;5.00;;;2.20;;
6356;SDS011;3211;53.452;-2.264;2023-03-07T01:11:10;5.00;;;2.70;;
6356;SDS011;3211;53.452;-2.264;2023-03-07T01:13:39;9.40;;;2.33;;
6356;SDS011;3211;53.452;-2.264;2023-03-07T01:16:07;6.23;;;3.03;;
6356;SDS011;3211;53.452;-2.264;2023-03-07T01:18:34;6.10;;;3.10;;
6356;SDS011;3211;53.452;-2.264;2023-03-07T01:21:08;5.83;;;3.07;;
6356;SDS011;3211;53.452;-2.264;2023-03-07T01:23:37;10.23;;;3.60;;
6356;SDS011;3211;53.452;-2.264;2023-03-07T01:26:04;9.93;;;3.60;;
6356;SDS011;3211;53.452;-2.264;2023-03-07T01:28:31;6.67;;;3.43;;
6356;SDS011;3211;53.452;-2.264;2023-03-07T01:30:59;13.53;;;3.93;;
6356;SDS011;3211;53.452;-2.264;2023-03-07T01:33:26;7.07;;;3.00;;
6356;SDS011;3211;53.452;-2.264;2023-03-07T01:35:53;8.30;;;4.10;;
6356;SDS011;3211;53.452;-2.264;2023-03-07T01:38:20;12.47;;;3.80;;
6356;SDS011;3211;53.452;-2.264;2023-03-07T01:40:47;17.00;;;4.13;;
6356;SDS011;3211;53.452;-2.264;2023-03-07T01:43:18;11.33;;;3.77;;
6356;SDS011;3211;53.452;-2.264;2023-03-07T01:49:19;15.30;;;4.30;;
6356;SDS011;3211;53.452;-2.264;2023-03-07T01:51:51;11.37;;;3.80;;
6356;SDS011;3211;53.452;-2.264;2023-03-07T01:54:21;8.17;;;3.73;;
6356;SDS011;3211;53.452;-2.264;2023-03-07T01:56:50;4.73;;;3.20;;
6356;SDS011;3211;53.452;-2.264;2023-03-07T01:59:19;11.50;;;3.83;;
6356;SDS011;3211;53.452;-2.264;2023-03-07T02:01:49;13.40;;;3.77;;
6356;SDS011;3211;53.452;-2.264;2023-03-07T02:04:20;14.30;;;3.83;;
6356;SDS011;3211;53.452;-2.264;2023-03-07T02:06:53;5.87;;;3.80;;
6356;SDS011;3211;53.452;-2.264;2023-03-07T02:09:20;5.90;;;3.80;;
6356;SDS011;3211;53.452;-2.264;2023-03-07T02:11:48;6.03;;;4.10;;
6356;SDS011;3211;53.452;-2.264;2023-03-07T02:14:15;8.87;;;4.10;;
6356;SDS011;3211;53.452;-2.264;2023-03-07T02:16:42;9.80;;;3.90;;
6356;SDS011;3211;53.452;-2.264;2023-03-07T02:19:13;14.00;;;3.70;;
6356;SDS011;3211;53.452;-2.264;2023-03-07T02:21:52;6.67;;;3.60;;
6356;SDS011;3211;53.452;-2.264;2023-03-07T02:24:25;9.47;;;4.10;;
6356;SDS011;3211;53.452;-2.264;2023-03-07T02:26:58;8.57;;;3.70;;
6356;SDS011;3211;53.452;-2.264;2023-03-07T02:29:25;6.13;;;3.37;;
6356;SDS011;3211;53.452;-2.264;2023-03-07T02:31:52;5.83;;;3.57;;
6356;SDS011;3211;53.452;-2.264;2023-03-07T02:34:20;9.47;;;3.43;;
6356;SDS011;3211;53.452;-2.264;2023-03-07T02:36:48;4.10;;;2.80;;
6356;SDS011;3211;53.452;-2.264;2023-03-07T02:39:18;8.30;;;3.00;;
6356;SDS011;3211;53.452;-2.264;2023-03-07T02:41:48;6.40;;;2.90;;
6356;SDS011;3211;53.452;-2.264;2023-03-07T02:44:18;6.00;;;1.97;;
6356;SDS011;3211;53.452;-2.264;2023-03-07T02:46:46;3.50;;;2.10;;
6356;SDS011;3211;53.452;-2.264;2023-03-07T02:49:13;16.63;;;2.57;;
6356;SDS011;3211;53.452;-2.264;2023-03-07T02:51:39;4.80;;;2.47;;
6356;SDS011;3211;53.452;-2.264;2023-03-07T02:54:07;8.90;;;2.57;;
6356;SDS011;3211;53.452;-2.264;2023-03-07T02:56:33;7.60;;;2.53;;
6356;SDS011;3211;53.452;-2.264;2023-03-07T02:59:01;7.00;;;2.37;;
6356;SDS011;3211;53.452;-2.264;2023-03-07T03:01:29;7.43;;;2.57;;
6356;SDS011;3211;53.452;-2.264;2023-03-07T03:03:56;3.43;;;2.10;;
6356;SDS011;3211;53.452;-2.264;2023-03-07T03:06:23;5.77;;;1.90;;
6356;SDS011;3211;53.452;-2.264;2023-03-07T03:08:50;1.90;;;1.40;;
6356;SDS011;3211;53.452;-2.264;2023-03-07T03:11:17;3.50;;;1.90;;
6356;SDS011;3211;53.452;-2.264;2023-03-07T03:13:44;4.57;;;1.90;;
6356;SDS011;3211;53.452;-2.264;2023-03-07T03:16:11;2.60;;;1.80;;
6356;SDS011;3211;53.452;-2.264;2023-03-07T03:18:39;2.30;;;1.70;;
6356;SDS011;3211;53.452;-2.264;2023-03-07T03:21:06;3.40;;;1.47;;
6356;SDS011;3211;53.452;-2.264;2023-03-07T03:23:34;2.20;;;1.67;;
6356;SDS011;3211;53.452;-2.264;2023-03-07T03:26:01;2.57;;;1.80;;
6356;SDS011;3211;53.452;-2.264;2023-03-07T03:28:31;2.80;;;1.80;;
6356;SDS011;3211;53.452;-2.264;2023-03-07T03:31:00;1.93;;;1.33;;
6356;SDS011;3211;53.452;-2.264;2023-03-07T03:33:28;1.53;;;1.43;;
6356;SDS011;3211;53.452;-2.264;2023-03-07T03:35:57;1.90;;;1.40;;
6356;SDS011;3211;53.452;-2.264;2023-03-07T03:38:25;2.90;;;1.33;;
6356;SDS011;3211;53.452;-2.264;2023-03-07T03:40:52;4.33;;;1.80;;
6356;SDS011;3211;53.452;-2.264;2023-03-07T03:43:19;1.97;;;1.50;;
6356;SDS011;3211;53.452;-2.264;2023-03-07T03:45:52;2.43;;;1.70;;
6356;SDS011;3211;53.452;-2.264;2023-03-07T03:48:20;2.37;;;1.60;;
6356;SDS011;3211;53.452;-2.264;2023-03-07T03:50:47;2.37;;;1.50;;
6356;SDS011;3211;53.452;-2.264;2023-03-07T03:53:15;2.50;;;1.87;;
6356;SDS011;3211;53.452;-2.264;2023-03-07T03:55:42;1.87;;;1.60;;
6356;SDS011;3211;53.452;-2.264;2023-03-07T03:58:09;1.80;;;1.40;;
6356;SDS011;3211;53.452;-2.264;2023-03-07T04:00:36;3.30;;;1.80;;
6356;SDS011;3211;53.452;-2.264;2023-03-07T04:03:03;2.40;;;1.70;;
6356;SDS011;3211;53.452;-2.264;2023-03-07T04:05:31;2.97;;;1.57;;
6356;SDS011;3211;53.452;-2.264;2023-03-07T04:07:59;2.93;;;1.43;;
6356;SDS011;3211;53.452;-2.264;2023-03-07T04:10:27;1.47;;;1.30;;
6356;SDS011;3211;53.452;-2.264;2023-03-07T04:12:54;3.23;;;1.40;;
6356;SDS011;3211;53.452;-2.264;2023-03-07T04:15:21;1.60;;;1.37;;
6356;SDS011;3211;53.452;-2.264;2023-03-07T04:17:48;5.20;;;1.80;;
6356;SDS011;3211;53.452;-2.264;2023-03-07T04:20:15;1.93;;;1.10;;
6356;SDS011;3211;53.452;-2.264;2023-03-07T04:22:43;1.70;;;1.40;;
6356;SDS011;3211;53.452;-2.264;2023-03-07T04:25:09;2.40;;;1.37;;
6356;SDS011;3211;53.452;-2.264;2023-03-07T04:27:38;1.57;;;1.30;;
6356;SDS011;3211;53.452;-2.264;2023-03-07T04:30:05;4.67;;;1.20;;
6356;SDS011;3211;53.452;-2.264;2023-03-07T04:32:33;2.20;;;1.20;;
6356;SDS011;3211;53.452;-2.264;2023-03-07T04:35:00;3.13;;;1.60;;
6356;SDS011;3211;53.452;-2.264;2023-03-07T04:37:27;6.17;;;1.43;;
6356;SDS011;3211;53.452;-2.264;2023-03-07T04:39:55;5.63;;;1.70;;
6356;SDS011;3211;53.452;-2.264;2023-03-07T04:42:22;2.40;;;1.20;;
6356;SDS011;3211;53.452;-2.264;2023-03-07T04:44:50;1.30;;;1.20;;
6356;SDS011;3211;53.452;-2.264;2023-03-07T04:47:17;2.23;;;1.30;;
6356;SDS011;3211;53.452;-2.264;2023-03-07T04:49:44;1.27;;;1.17;;
6356;SDS011;3211;53.452;-2.264;2023-03-07T04:52:11;1.73;;;1.30;;
6356;SDS011;3211;53.452;-2.264;2023-03-07T04:54:38;5.67;;;1.20;;
6356;SDS011;3211;53.452;-2.264;2023-03-07T04:57:05;2.83;;;1.37;;
6356;SDS011;3211;53.452;-2.264;2023-03-07T04:59:32;3.23;;;1.20;;
6356;SDS011;3211;53.452;-2.264;2023-03-07T05:02:04;1.67;;;1.43;;
6356;SDS011;3211;53.452;-2.264;2023-03-07T05:04:31;2.20;;;1.40;;
6356;SDS011;3211;53.452;-2.264;2023-03-07T05:06:58;3.53;;;1.17;;
6356;SDS011;3211;53.452;-2.264;2023-03-07T05:09:25;1.37;;;1.17;;
6356;SDS011;3211;53.452;-2.264;2023-03-07T05:11:52;4.30;;;1.13;;
6356;SDS011;3211;53.452;-2.264;2023-03-07T05:14:19;4.83;;;1.90;;
6356;SDS011;3211;53.452;-2.264;2023-03-07T05:16:46;1.53;;;1.17;;
6356;SDS011;3211;53.452;-2.264;2023-03-07T05:19:15;1.80;;;1.23;;
6356;SDS011;3211;53.452;-2.264;2023-03-07T05:21:42;3.27;;;1.40;;
6356;SDS011;3211;53.452;-2.264;2023-03-07T05:24:08;3.43;;;1.20;;
6356;SDS011;3211;53.452;-2.264;2023-03-07T05:26:36;1.40;;;1.20;;
6356;SDS011;3211;53.452;-2.264;2023-03-07T05:29:03;1.70;;;1.40;;
6356;SDS011;3211;53.452;-2.264;2023-03-07T05:31:29;1.33;;;1.17;;
6356;SDS011;3211;53.452;-2.264;2023-03-07T05:33:56;2.70;;;1.30;;
6356;SDS011;3211;53.452;-2.264;2023-03-07T05:36:25;5.50;;;1.43;;
6356;SDS011;3211;53.452;-2.264;2023-03-07T05:38:52;5.43;;;1.30;;
6356;SDS011;3211;53.452;-2.264;2023-03-07T05:41:20;2.10;;;1.10;;
6356;SDS011;3211;53.452;-2.264;2023-03-07T05:43:47;2.03;;;1.20;;
6356;SDS011;3211;53.452;-2.264;2023-03-07T05:46:14;3.30;;;1.20;;
6356;SDS011;3211;53.452;-2.264;2023-03-07T05:48:41;2.20;;;1.20;;
6356;SDS011;3211;53.452;-2.264;2023-03-07T05:51:08;1.10;;;1.00;;
6356;SDS011;3211;53.452;-2.264;2023-03-07T05:53:36;1.97;;;1.27;;
6356;SDS011;3211;53.452;-2.264;2023-03-07T05:56:03;1.97;;;1.17;;
6356;SDS011;3211;53.452;-2.264;2023-03-07T05:58:31;1.40;;;1.30;;
6356;SDS011;3211;53.452;-2.264;2023-03-07T06:01:00;2.17;;;1.10;;
6356;SDS011;3211;53.452;-2.264;2023-03-07T06:03:27;2.13;;;1.20;;
6356;SDS011;3211;53.452;-2.264;2023-03-07T06:05:54;1.67;;;1.30;;
6356;SDS011;3211;53.452;-2.264;2023-03-07T06:08:21;1.17;;;0.90;;
6356;SDS011;3211;53.452;-2.264;2023-03-07T06:10:49;2.30;;;1.10;;
6356;SDS011;3211;53.452;-2.264;2023-03-07T06:13:17;2.30;;;1.20;;
6356;SDS011;3211;53.452;-2.264;2023-03-07T06:15:47;2.33;;;1.30;;
6356;SDS011;3211;53.452;-2.264;2023-03-07T06:18:15;3.03;;;1.23;;
6356;SDS011;3211;53.452;-2.264;2023-03-07T06:20:42;1.80;;;1.20;;
6356;SDS011;3211;53.452;-2.264;2023-03-07T06:23:09;2.90;;;1.20;;
6356;SDS011;3211;53.452;-2.264;2023-03-07T06:25:36;1.70;;;1.10;;
6356;SDS011;3211;53.452;-2.264;2023-03-07T06:28:05;3.80;;;1.00;;
6356;SDS011;3211;53.452;-2.264;2023-03-07T06:30:32;3.23;;;1.23;;
6356;SDS011;3211;53.452;-2.264;2023-03-07T06:32:59;1.73;;;1.20;;
6356;SDS011;3211;53.452;-2.264;2023-03-07T06:35:25;2.47;;;1.30;;
6356;SDS011;3211;53.452;-2.264;2023-03-07T06:37:52;4.00;;;1.20;;
6356;SDS011;3211;53.452;-2.264;2023-03-07T06:40:19;2.33;;;1.00;;
6356;SDS011;3211;53.452;-2.264;2023-03-07T06:42:46;1.10;;;1.00;;
6356;SDS011;3211;53.452;-2.264;2023-03-07T06:45:14;2.30;;;1.13;;
6356;SDS011;3211;53.452;-2.264;2023-03-07T06:47:41;3.10;;;1.23;;
6356;SDS011;3211;53.452;-2.264;2023-03-07T06:50:09;2.17;;;1.40;;
6356;SDS011;3211;53.452;-2.264;2023-03-07T06:52:36;3.97;;;1.30;;
6356;SDS011;3211;53.452;-2.264;2023-03-07T06:55:03;3.90;;;1.37;;
6356;SDS011;3211;53.452;-2.264;2023-03-07T06:57:31;2.20;;;1.40;;
6356;SDS011;3211;53.452;-2.264;2023-03-07T06:59:58;3.83;;;1.30;;
6356;SDS011;3211;53.452;-2.264;2023-03-07T07:02:26;1.60;;;1.40;;
6356;SDS011;3211;53.452;-2.264;2023-03-07T07:04:53;2.83;;;1.60;;
6356;SDS011;3211;53.452;-2.264;2023-03-07T07:07:22;1.63;;;1.37;;
6356;SDS011;3211;53.452;-2.264;2023-03-07T07:09:49;5.53;;;1.50;;
6356;SDS011;3211;53.452;-2.264;2023-03-07T07:12:16;1.40;;;1.30;;
6356;SDS011;3211;53.452;-2.264;2023-03-07T07:14:43;5.73;;;2.07;;
6356;SDS011;3211;53.452;-2.264;2023-03-07T07:17:10;3.10;;;1.43;;
6356;SDS011;3211;53.452;-2.264;2023-03-07T07:19:39;1.80;;;1.37;;
6356;SDS011;3211;53.452;-2.264;2023-03-07T07:22:05;2.07;;;1.50;;
6356;SDS011;3211;53.452;-2.264;2023-03-07T07:24:36;2.70;;;1.20;;
6356;SDS011;3211;53.452;-2.264;2023-03-07T07:27:03;2.27;;;1.40;;
6356;SDS011;3211;53.452;-2.264;2023-03-07T07:29:30;2.37;;;1.50;;
6356;SDS011;3211;53.452;-2.264;2023-03-07T07:31:57;2.23;;;1.60;;
6356;SDS011;3211;53.452;-2.264;2023-03-07T07:34:24;3.40;;;2.50;;
6356;SDS011;3211;53.452;-2.264;2023-03-07T07:36:53;2.90;;;1.60;;
6356;SDS011;3211;53.452;-2.264;2023-03-07T07:39:20;5.33;;;1.80;;
6356;SDS011;3211;53.452;-2.264;2023-03-07T07:41:48;4.60;;;1.77;;
6356;SDS011;3211;53.452;-2.264;2023-03-07T07:44:15;3.30;;;1.63;;
6356;SDS011;3211;53.452;-2.264;2023-03-07T07:46:42;5.70;;;1.60;;
6356;SDS011;3211;53.452;-2.264;2023-03-07T07:49:09;2.87;;;1.77;;
6356;SDS011;3211;53.452;-2.264;2023-03-07T07:51:36;6.10;;;1.63;;
6356;SDS011;3211;53.452;-2.264;2023-03-07T07:54:06;4.30;;;1.60;;
6356;SDS011;3211;53.452;-2.264;2023-03-07T07:56:33;2.60;;;1.60;;
6356;SDS011;3211;53.452;-2.264;2023-03-07T07:59:00;8.37;;;1.70;;
6356;SDS011;3211;53.452;-2.264;2023-03-07T08:01:27;2.23;;;1.50;;
6356;SDS011;3211;53.452;-2.264;2023-03-07T08:03:54;5.10;;;1.77;;
6356;SDS011;3211;53.452;-2.264;2023-03-07T08:06:21;2.27;;;1.40;;
6356;SDS011;3211;53.452;-2.264;2023-03-07T08:08:50;2.03;;;1.47;;
6356;SDS011;3211;53.452;-2.264;2023-03-07T08:11:19;5.07;;;1.93;;
6356;SDS011;3211;53.452;-2.264;2023-03-07T08:13:47;3.43;;;1.50;;
6356;SDS011;3211;53.452;-2.264;2023-03-07T08:16:15;6.97;;;3.17;;
6356;SDS011;3211;53.452;-2.264;2023-03-07T08:18:43;4.17;;;1.80;;
6356;SDS011;3211;53.452;-2.264;2023-03-07T08:21:13;3.17;;;2.23;;
6356;SDS011;3211;53.452;-2.264;2023-03-07T08:23:41;8.00;;;1.83;;
6356;SDS011;3211;53.452;-2.264;2023-03-07T08:26:08;2.63;;;1.60;;
6356;SDS011;3211;53.452;-2.264;2023-03-07T08:28:38;3.13;;;1.70;;
6356;SDS011;3211;53.452;-2.264;2023-03-07T08:31:07;5.50;;;2.10;;
6356;SDS011;3211;53.452;-2.264;2023-03-07T08:33:34;4.93;;;1.60;;
6356;SDS011;3211;53.452;-2.264;2023-03-07T08:36:01;3.40;;;1.67;;
6356;SDS011;3211;53.452;-2.264;2023-03-07T08:38:29;5.57;;;1.43;;
6356;SDS011;3211;53.452;-2.264;2023-03-07T08:40:58;3.07;;;1.63;;
6356;SDS011;3211;53.452;-2.264;2023-03-07T08:43:26;2.20;;;1.43;;
6356;SDS011;3211;53.452;-2.264;2023-03-07T08:45:55;6.63;;;1.60;;
6356;SDS011;3211;53.452;-2.264;2023-03-07T08:48:23;2.80;;;1.30;;
6356;SDS011;3211;53.452;-2.264;2023-03-07T08:50:50;1.63;;;1.27;;
6356;SDS011;3211;53.452;-2.264;2023-03-07T08:53:17;6.50;;;1.67;;
6356;SDS011;3211;53.452;-2.264;2023-03-07T08:55:44;2.03;;;1.40;;
6356;SDS011;3211;53.452;-2.264;2023-03-07T08:58:12;2.97;;;2.00;;
6356;SDS011;3211;53.452;-2.264;2023-03-07T09:00:39;4.97;;;1.60;;
6356;SDS011;3211;53.452;-2.264;2023-03-07T09:03:07;2.60;;;1.60;;
6356;SDS011;3211;53.452;-2.264;2023-03-07T09:05:35;5.03;;;1.60;;
6356;SDS011;3211;53.452;-2.264;2023-03-07T09:08:03;2.60;;;1.40;;
6356;SDS011;3211;53.452;-2.264;2023-03-07T09:10:30;11.20;;;1.97;;
6356;SDS011;3211;53.452;-2.264;2023-03-07T09:12:57;3.27;;;1.67;;
6356;SDS011;3211;53.452;-2.264;2023-03-07T09:15:24;4.40;;;1.47;;
6356;SDS011;3211;53.452;-2.264;2023-03-07T09:17:52;2.43;;;1.40;;
6356;SDS011;3211;53.452;-2.264;2023-03-07T09:20:20;8.10;;;1.87;;
6356;SDS011;3211;53.452;-2.264;2023-03-07T09:22:47;4.50;;;1.30;;
6356;SDS011;3211;53.452;-2.264;2023-03-07T09:25:15;2.83;;;1.50;;
6356;SDS011;3211;53.452;-2.264;2023-03-07T09:27:43;1.87;;;1.27;;
6356;SDS011;3211;53.452;-2.264;2023-03-07T09:30:10;1.50;;;1.37;;
6356;SDS011;3211;53.452;-2.264;2023-03-07T09:32:38;3.67;;;1.33;;
6356;SDS011;3211;53.452;-2.264;2023-03-07T09:35:05;3.93;;;1.40;;
6356;SDS011;3211;53.452;-2.264;2023-03-07T09:37:34;4.50;;;1.73;;
6356;SDS011;3211;53.452;-2.264;2023-03-07T09:40:01;4.13;;;1.70;;
6356;SDS011;3211;53.452;-2.264;2023-03-07T09:42:32;2.43;;;1.33;;
6356;SDS011;3211;53.452;-2.264;2023-03-07T09:45:13;1.77;;;1.20;;
6356;SDS011;3211;53.452;-2.264;2023-03-07T09:48:14;5.17;;;1.93;;
6356;SDS011;3211;53.452;-2.264;2023-03-07T09:50:59;3.20;;;1.70;;
6356;SDS011;3211;53.452;-2.264;2023-03-07T09:53:34;3.60;;;1.80;;
6356;SDS011;3211;53.452;-2.264;2023-03-07T09:56:04;1.80;;;1.47;;
6356;SDS011;3211;53.452;-2.264;2023-03-07T09:58:39;11.47;;;1.60;;
6356;SDS011;3211;53.452;-2.264;2023-03-07T10:01:10;3.57;;;1.30;;
6356;SDS011;3211;53.452;-2.264;2023-03-07T10:03:42;3.17;;;1.33;;
6356;SDS011;3211;53.452;-2.264;2023-03-07T10:06:17;2.67;;;1.53;;
6356;SDS011;3211;53.452;-2.264;2023-03-07T10:08:51;4.10;;;1.43;;
6356;SDS011;3211;53.452;-2.264;2023-03-07T10:11:22;5.97;;;1.67;;
6356;SDS011;3211;53.452;-2.264;2023-03-07T10:13:58;4.40;;;1.53;;
6356;SDS011;3211;53.452;-2.264;2023-03-07T10:16:36;4.00;;;1.40;;
6356;SDS011;3211;53.452;-2.264;2023-03-07T10:19:12;4.83;;;1.70;;
6356;SDS011;3211;53.452;-2.264;2023-03-07T10:21:47;3.13;;;1.70;;
6356;SDS011;3211;53.452;-2.264;2023-03-07T10:24:27;1.87;;;1.27;;
6356;SDS011;3211;53.452;-2.264;2023-03-07T10:27:04;2.83;;;1.60;;
6356;SDS011;3211;53.452;-2.264;2023-03-07T10:29:35;4.33;;;1.80;;
6356;SDS011;3211;53.452;-2.264;2023-03-07T10:32:20;7.20;;;1.93;;
6356;SDS011;3211;53.452;-2.264;2023-03-07T10:34:53;5.80;;;1.97;;
6356;SDS011;3211;53.452;-2.264;2023-03-07T10:37:25;2.30;;;1.37;;
6356;SDS011;3211;53.452;-2.264;2023-03-07T10:40:03;2.40;;;1.67;;
6356;SDS011;3211;53.452;-2.264;2023-03-07T10:42:32;2.80;;;1.40;;
6356;SDS011;3211;53.452;-2.264;2023-03-07T10:45:04;4.17;;;1.47;;
6356;SDS011;3211;53.452;-2.264;2023-03-07T10:47:31;2.83;;;1.20;;
6356;SDS011;3211;53.452;-2.264;2023-03-07T10:49:59;3.67;;;1.30;;
6356;SDS011;3211;53.452;-2.264;2023-03-07T10:52:41;3.97;;;1.50;;
6356;SDS011;3211;53.452;-2.264;2023-03-07T10:55:38;7.93;;;1.80;;
6356;SDS011;3211;53.452;-2.264;2023-03-07T10:58:15;5.73;;;1.67;;
6356;SDS011;3211;53.452;-2.264;2023-03-07T11:00:45;1.87;;;1.40;;
6356;SDS011;3211;53.452;-2.264;2023-03-07T11:03:24;2.90;;;1.50;;
6356;SDS011;3211;53.452;-2.264;2023-03-07T11:05:55;1.67;;;1.40;;
6356;SDS011;3211;53.452;-2.264;2023-03-07T11:08:25;2.47;;;1.40;;
6356;SDS011;3211;53.452;-2.264;2023-03-07T11:10:56;2.90;;;1.50;;
6356;SDS011;3211;53.452;-2.264;2023-03-07T11:13:24;4.50;;;1.70;;
6356;SDS011;3211;53.452;-2.264;2023-03-07T11:15:52;5.23;;;2.00;;
6356;SDS011;3211;53.452;-2.264;2023-03-07T11:18:36;1.67;;;1.40;;
6356;SDS011;3211;53.452;-2.264;2023-03-07T11:21:04;6.00;;;1.60;;
6356;SDS011;3211;53.452;-2.264;2023-03-07T11:23:31;2.10;;;1.57;;
6356;SDS011;3211;53.452;-2.264;2023-03-07T11:26:14;3.47;;;1.40;;
6356;SDS011;3211;53.452;-2.264;2023-03-07T11:28:42;4.63;;;1.70;;
6356;SDS011;3211;53.452;-2.264;2023-03-07T11:31:11;1.97;;;1.20;;
6356;SDS011;3211;53.452;-2.264;2023-03-07T11:33:47;3.10;;;1.70;;
6356;SDS011;3211;53.452;-2.264;2023-03-07T11:36:20;3.83;;;1.40;;
6356;SDS011;3211;53.452;-2.264;2023-03-07T11:38:54;3.07;;;1.30;;
6356;SDS011;3211;53.452;-2.264;2023-03-07T11:41:28;1.93;;;1.30;;
6356;SDS011;3211;53.452;-2.264;2023-03-07T11:46:51;2.83;;;1.70;;
6356;SDS011;3211;53.452;-2.264;2023-03-07T11:49:37;3.53;;;1.40;;
6356;SDS011;3211;53.452;-2.264;2023-03-07T11:52:12;3.10;;;1.50;;
6356;SDS011;3211;53.452;-2.264;2023-03-07T11:54:52;4.17;;;1.40;;
6356;SDS011;3211;53.452;-2.264;2023-03-07T11:57:34;2.50;;;1.20;;
6356;SDS011;3211;53.452;-2.264;2023-03-07T12:00:26;2.40;;;1.43;;
6356;SDS011;3211;53.452;-2.264;2023-03-07T12:06:04;5.27;;;1.30;;
6356;SDS011;3211;53.452;-2.264;2023-03-07T12:08:57;3.07;;;1.60;;
6356;SDS011;3211;53.452;-2.264;2023-03-07T12:11:44;2.70;;;1.10;;
6356;SDS011;3211;53.452;-2.264;2023-03-07T12:14:30;3.00;;;1.17;;
6356;SDS011;3211;53.452;-2.264;2023-03-07T12:17:04;1.70;;;1.00;;
6356;SDS011;3211;53.452;-2.264;2023-03-07T12:19:56;1.23;;;1.10;;
6356;SDS011;3211;53.452;-2.264;2023-03-07T12:22:46;1.17;;;1.00;;
6356;SDS011;3211;53.452;-2.264;2023-03-07T12:25:26;1.47;;;1.07;;
6356;SDS011;3211;53.452;-2.264;2023-03-07T12:28:01;2.57;;;1.00;;
6356;SDS011;3211;53.452;-2.264;2023-03-07T12:30:36;1.23;;;1.00;;
6356;SDS011;3211;53.452;-2.264;2023-03-07T12:33:14;4.73;;;1.30;;
6356;SDS011;3211;53.452;-2.264;2023-03-07T12:35:47;2.17;;;1.07;;
6356;SDS011;3211;53.452;-2.264;2023-03-07T12:38:18;2.53;;;1.10;;
6356;SDS011;3211;53.452;-2.264;2023-03-07T12:40:52;1.93;;;1.27;;
6356;SDS011;3211;53.452;-2.264;2023-03-07T12:43:25;1.67;;;1.00;;
6356;SDS011;3211;53.452;-2.264;2023-03-07T12:45:59;4.77;;;1.27;;
6356;SDS011;3211;53.452;-2.264;2023-03-07T12:48:37;5.03;;;1.27;;
6356;SDS011;3211;53.452;-2.264;2023-03-07T12:51:08;5.70;;;1.50;;
6356;SDS011;3211;53.452;-2.264;2023-03-07T12:53:40;3.33;;;1.30;;
6356;SDS011;3211;53.452;-2.264;2023-03-07T12:56:14;3.57;;;1.30;;
6356;SDS011;3211;53.452;-2.264;2023-03-07T12:58:46;1.83;;;1.27;;
6356;SDS011;3211;53.452;-2.264;2023-03-07T13:01:20;1.47;;;1.00;;
6356;SDS011;3211;53.452;-2.264;2023-03-07T13:03:53;1.63;;;1.00;;
6356;SDS011;3211;53.452;-2.264;2023-03-07T13:06:23;3.13;;;1.23;;
6356;SDS011;3211;53.452;-2.264;2023-03-07T13:08:51;2.40;;;1.07;;
6356;SDS011;3211;53.452;-2.264;2023-03-07T13:11:21;3.80;;;1.47;;
6356;SDS011;3211;53.452;-2.264;2023-03-07T13:13:51;1.60;;;1.30;;
6356;SDS011;3211;53.452;-2.264;2023-03-07T13:16:37;3.33;;;1.20;;
6356;SDS011;3211;53.452;-2.264;2023-03-07T13:46:45;1.40;;;1.07;;
6356;SDS011;3211;53.452;-2.264;2023-03-07T13:52:14;2.70;;;1.90;;
6356;SDS011;3211;53.452;-2.264;2023-03-07T13:54:59;2.93;;;1.27;;
6356;SDS011;3211;53.452;-2.264;2023-03-07T13:57:36;2.60;;;1.27;;
6356;SDS011;3211;53.452;-2.264;2023-03-07T14:00:17;1.40;;;1.00;;
6356;SDS011;3211;53.452;-2.264;2023-03-07T14:02:53;1.50;;;1.20;;
6356;SDS011;3211;53.452;-2.264;2023-03-07T14:05:21;1.20;;;1.10;;
6356;SDS011;3211;53.452;-2.264;2023-03-07T14:07:48;1.87;;;0.90;;
6356;SDS011;3211;53.452;-2.264;2023-03-07T14:10:18;1.20;;;1.10;;
6356;SDS011;3211;53.452;-2.264;2023-03-07T14:12:57;1.80;;;1.27;;
6356;SDS011;3211;53.452;-2.264;2023-03-07T14:15:41;1.53;;;1.00;;
6356;SDS011;3211;53.452;-2.264;2023-03-07T14:18:19;2.13;;;1.20;;
6356;SDS011;3211;53.452;-2.264;2023-03-07T14:20:54;1.30;;;1.00;;
6356;SDS011;3211;53.452;-2.264;2023-03-07T14:23:40;2.40;;;0.90;;
6356;SDS011;3211;53.452;-2.264;2023-03-07T14:26:30;3.73;;;1.07;;
6356;SDS011;3211;53.452;-2.264;2023-03-07T14:29:01;2.17;;;1.23;;
6356;SDS011;3211;53.452;-2.264;2023-03-07T14:31:38;2.17;;;1.13;;
6356;SDS011;3211;53.452;-2.264;2023-03-07T14:34:15;2.60;;;1.17;;
6356;SDS011;3211;53.452;-2.264;2023-03-07T14:36:48;3.00;;;1.20;;
6356;SDS011;3211;53.452;-2.264;2023-03-07T14:39:17;2.67;;;1.27;;
6356;SDS011;3211;53.452;-2.264;2023-03-07T14:41:47;5.83;;;1.33;;
6356;SDS011;3211;53.452;-2.264;2023-03-07T14:44:25;2.70;;;1.50;;
6356;SDS011;3211;53.452;-2.264;2023-03-07T14:47:07;2.13;;;1.60;;
6356;SDS011;3211;53.452;-2.264;2023-03-07T14:49:47;1.60;;;1.40;;
6356;SDS011;3211;53.452;-2.264;2023-03-07T14:52:20;1.90;;;1.20;;
6356;SDS011;3211;53.452;-2.264;2023-03-07T14:54:50;2.60;;;1.33;;
6356;SDS011;3211;53.452;-2.264;2023-03-07T14:57:20;1.47;;;1.30;;
6356;SDS011;3211;53.452;-2.264;2023-03-07T15:00:02;1.77;;;1.20;;
6356;SDS011;3211;53.452;-2.264;2023-03-07T15:02:32;1.47;;;1.13;;
6356;SDS011;3211;53.452;-2.264;2023-03-07T15:05:00;1.47;;;1.30;;
6356;SDS011;3211;53.452;-2.264;2023-03-07T15:07:28;2.07;;;1.10;;
6356;SDS011;3211;53.452;-2.264;2023-03-07T15:09:55;1.10;;;1.00;;
6356;SDS011;3211;53.452;-2.264;2023-03-07T15:12:23;1.97;;;1.27;;
6356;SDS011;3211;53.452;-2.264;2023-03-07T15:14:55;1.53;;;1.23;;
6356;SDS011;3211;53.452;-2.264;2023-03-07T15:17:25;2.87;;;1.37;;
6356;SDS011;3211;53.452;-2.264;2023-03-07T15:19:55;2.60;;;1.13;;
6356;SDS011;3211;53.452;-2.264;2023-03-07T15:22:27;1.73;;;1.20;;
6356;SDS011;3211;53.452;-2.264;2023-03-07T15:24:56;2.07;;;1.27;;
6356;SDS011;3211;53.452;-2.264;2023-03-07T15:27:24;2.60;;;1.30;;
6356;SDS011;3211;53.452;-2.264;2023-03-07T15:29:54;3.33;;;1.07;;
6356;SDS011;3211;53.452;-2.264;2023-03-07T15:32:30;1.73;;;1.30;;
6356;SDS011;3211;53.452;-2.264;2023-03-07T15:34:59;13.23;;;3.47;;
6356;SDS011;3211;53.452;-2.264;2023-03-07T15:37:29;1.27;;;1.13;;
6356;SDS011;3211;53.452;-2.264;2023-03-07T15:39:58;3.50;;;1.40;;
6356;SDS011;3211;53.452;-2.264;2023-03-07T15:42:26;1.50;;;1.10;;
6356;SDS011;3211;53.452;-2.264;2023-03-07T15:44:53;1.20;;;1.10;;
6356;SDS011;3211;53.452;-2.264;2023-03-07T15:47:21;1.53;;;1.10;;
6356;SDS011;3211;53.452;-2.264;2023-03-07T15:49:50;1.43;;;1.10;;
6356;SDS011;3211;53.452;-2.264;2023-03-07T15:52:19;2.27;;;1.40;;
6356;SDS011;3211;53.452;-2.264;2023-03-07T15:54:53;2.10;;;1.10;;
6356;SDS011;3211;53.452;-2.264;2023-03-07T15:57:22;3.10;;;1.20;;
6356;SDS011;3211;53.452;-2.264;2023-03-07T15:59:53;1.10;;;0.90;;